Terminal Aerodrome Forecast
Issued by NWS

Home | Current Version | Previous Version | Text Only | Print | Product List | Glossary On
Versions: 1 2 3 4 5 6 7 8 9 10 11 12 13 14 15 16
041
FTPA31 PHFO 221124
TAFHLI
TAF
PHLI 221124Z 2212/2312 04014G20KT P6SM VCSH SCT025 BKN060
     FM222000 03018G25KT P6SM SCT025 SCT060
     FM230500 03015G23KT P6SM VCSH SCT025 BKN050=

USA.gov is the U.S. government's official web portal to all federal, state and local government web resources and services.